createdAt,value
2022-09-01T00:00:13.417Z,100704.61
2022-09-01T00:03:01.453Z,100701.27
2022-09-01T00:05:32.837Z,100702.23
2022-09-01T00:08:01.375Z,100703.39
2022-09-01T00:10:30.039Z,100697.23
2022-09-01T00:12:59.133Z,100701.39
2022-09-01T00:15:27.997Z,100702.45
2022-09-01T00:17:56.342Z,100703.83
2022-09-01T00:20:24.901Z,100704.00
2022-09-01T00:22:53.274Z,100707.38
2022-09-01T00:25:24.794Z,100704.08
2022-09-01T00:27:53.304Z,100706.58
2022-09-01T00:30:22.488Z,100707.52
2022-09-01T00:32:51.028Z,100704.83
2022-09-01T00:35:20.392Z,100705.30
2022-09-01T00:37:48.857Z,100706.97
2022-09-01T00:40:18.788Z,100705.37
2022-09-01T00:42:49.003Z,100705.69
2022-09-01T00:45:17.424Z,100702.14
2022-09-01T00:47:45.777Z,100703.80
2022-09-01T00:50:18.168Z,100703.30
2022-09-01T00:52:55.003Z,100702.80
2022-09-01T00:55:33.289Z,100694.77
2022-09-01T00:58:03.969Z,100693.10
2022-09-01T01:00:40.848Z,100689.35
2022-09-01T01:03:13.819Z,100690.98
2022-09-01T01:05:55.757Z,100690.12
2022-09-01T01:08:34.544Z,100689.28
2022-09-01T01:11:17.922Z,100689.59
2022-09-01T01:14:12.409Z,100689.81
2022-09-01T01:16:47.073Z,100690.86
2022-09-01T01:20:03.253Z,100691.15
2022-09-01T01:23:02.294Z,100691.77
2022-09-01T01:25:44.307Z,100690.27
2022-09-01T01:28:16.503Z,100688.48
2022-09-01T01:30:52.438Z,100689.50
2022-09-01T01:33:25.913Z,100687.41
2022-09-01T01:35:57.526Z,100692.16
2022-09-01T01:38:27.556Z,100685.84
2022-09-01T01:40:56.376Z,100685.70
2022-09-01T01:43:26.450Z,100685.58
2022-09-01T01:46:02.886Z,100686.13
2022-09-01T01:48:34.823Z,100682.48
2022-09-01T01:51:05.846Z,100683.95
2022-09-01T01:53:34.754Z,100682.08
2022-09-01T01:56:03.617Z,100681.64
2022-09-01T01:58:34.964Z,100680.61
2022-09-01T02:01:03.735Z,100682.50
2022-09-01T02:03:38.718Z,100679.81
2022-09-01T02:06:12.095Z,100682.37
2022-09-01T02:08:41.317Z,100684.23
2022-09-01T02:11:09.637Z,100680.83
2022-09-01T02:13:37.993Z,100679.36
2022-09-01T02:16:13.131Z,100679.15
2022-09-01T02:18:48.925Z,100675.09
2022-09-01T02:21:21.290Z,100675.73
2022-09-01T02:24:02.173Z,100675.85
2022-09-01T02:26:43.015Z,100674.11
2022-09-01T02:29:19.179Z,100674.65
2022-09-01T02:31:53.692Z,100667.25
2022-09-01T02:34:24.803Z,100668.02
2022-09-01T02:36:56.012Z,100671.59
2022-09-01T02:39:29.689Z,100672.38
2022-09-01T02:41:58.580Z,100671.94
2022-09-01T02:44:29.317Z,100673.06
2022-09-01T02:46:58.930Z,100674.67
2022-09-01T02:49:28.728Z,100676.51
2022-09-01T02:52:01.844Z,100674.02
2022-09-01T02:54:32.614Z,100678.62
2022-09-01T02:57:01.677Z,100675.57
2022-09-01T02:59:31.002Z,100676.01
2022-09-01T03:01:59.573Z,100677.41
2022-09-01T03:04:27.986Z,100678.19
2022-09-01T03:06:58.925Z,100681.52
2022-09-01T03:09:28.188Z,100678.91
2022-09-01T03:11:56.576Z,100678.44
2022-09-01T03:14:26.066Z,100678.21
2022-09-01T03:16:54.533Z,100682.73
2022-09-01T03:19:23.206Z,100682.52
2022-09-01T03:21:51.803Z,100684.59
2022-09-01T03:24:20.239Z,100683.27
2022-09-01T03:26:50.827Z,100686.30
2022-09-01T03:29:20.610Z,100685.12
2022-09-01T03:31:49.600Z,100684.59
2022-09-01T03:34:20.842Z,100682.01
2022-09-01T03:36:50.922Z,100683.38
2022-09-01T03:39:20.045Z,100679.20
2022-09-01T03:41:48.801Z,100682.06
2022-09-01T03:44:17.323Z,100679.81
2022-09-01T03:46:46.916Z,100679.09
2022-09-01T03:49:25.308Z,100679.64
2022-09-01T03:51:54.600Z,100682.65
2022-09-01T03:54:30.667Z,100680.37
2022-09-01T03:57:00.012Z,100685.66
2022-09-01T03:59:30.210Z,100688.14
2022-09-01T04:02:00.437Z,100687.99
2022-09-01T04:04:33.090Z,100689.27
2022-09-01T04:07:01.644Z,100689.63
2022-09-01T04:09:30.020Z,100686.69
2022-09-01T04:11:58.798Z,100687.66
2022-09-01T04:14:29.212Z,100689.05
2022-09-01T04:17:17.291Z,100685.74
2022-09-01T04:19:45.846Z,100685.55
2022-09-01T04:22:15.675Z,100686.64
2022-09-01T04:24:45.946Z,100684.27
2022-09-01T04:27:18.280Z,100688.28
2022-09-01T04:29:48.631Z,100688.36
2022-09-01T04:32:17.026Z,100689.06
2022-09-01T04:34:45.371Z,100691.73
2022-09-01T04:37:18.966Z,100690.73
2022-09-01T04:39:56.292Z,100691.50
2022-09-01T04:42:29.186Z,100690.59
2022-09-01T04:45:00.109Z,100694.27
2022-09-01T04:47:35.604Z,100693.79
2022-09-01T04:50:14.058Z,100695.63
2022-09-01T04:52:47.928Z,100695.41
2022-09-01T04:55:19.202Z,100694.07
2022-09-01T04:57:49.635Z,100691.95
2022-09-01T05:00:22.728Z,100691.27
2022-09-01T05:03:04.707Z,100699.09
2022-09-01T05:05:54.143Z,100700.57
2022-09-01T05:08:24.491Z,100701.22
2022-09-01T05:10:57.016Z,100701.17
2022-09-01T05:13:29.710Z,100700.20
2022-09-01T05:16:13.182Z,100700.83
2022-09-01T05:18:47.917Z,100703.59
2022-09-01T05:21:22.329Z,100703.44
2022-09-01T05:23:51.904Z,100700.26
2022-09-01T05:26:31.735Z,100699.64
2022-09-01T05:29:13.536Z,100697.09
2022-09-01T05:31:45.590Z,100693.89
2022-09-01T05:34:20.112Z,100696.79
2022-09-01T05:36:50.854Z,100699.50
2022-09-01T05:39:20.933Z,100699.64
2022-09-01T05:41:49.941Z,100704.40
2022-09-01T05:44:18.911Z,100709.13
2022-09-01T05:46:47.747Z,100709.57
2022-09-01T05:49:18.713Z,100710.48
2022-09-01T05:51:51.796Z,100708.69
2022-09-01T05:54:25.314Z,100715.39
2022-09-01T05:57:12.615Z,100716.73
2022-09-01T05:59:53.779Z,100719.55
2022-09-01T06:02:26.379Z,100722.65
2022-09-01T06:04:56.995Z,100721.27
2022-09-01T06:07:28.610Z,100722.80
2022-09-01T06:09:57.272Z,100726.70
2022-09-01T06:12:28.151Z,100728.42
2022-09-01T06:14:58.423Z,100725.64
2022-09-01T06:17:30.041Z,100723.33
2022-09-01T06:20:13.619Z,100719.15
2022-09-01T06:22:42.118Z,100717.09
2022-09-01T06:25:11.060Z,100720.45
2022-09-01T06:27:42.585Z,100722.29
2022-09-01T06:30:20.121Z,100723.48
2022-09-01T06:32:52.266Z,100729.26
2022-09-01T06:35:25.212Z,100730.68
2022-09-01T06:37:58.456Z,100731.11
2022-09-01T06:40:36.089Z,100729.33
2022-09-01T06:43:08.430Z,100734.16
2022-09-01T06:45:45.213Z,100735.30
2022-09-01T06:48:16.343Z,100739.08
2022-09-01T06:53:35.862Z,100736.30
2022-09-01T06:56:04.254Z,100734.34
2022-09-01T06:58:38.316Z,100734.77
2022-09-01T07:01:16.083Z,100732.13
2022-09-01T07:03:51.221Z,100733.51
2022-09-01T07:09:50.015Z,100736.55
2022-09-01T07:12:35.287Z,100741.39
2022-09-01T07:18:03.505Z,100739.95
2022-09-01T07:21:36.783Z,100744.63
2022-09-01T07:24:08.688Z,100743.88
2022-09-01T07:26:47.173Z,100746.89
2022-09-01T07:29:21.855Z,100745.88
2022-09-01T07:35:11.701Z,100753.36
2022-09-01T07:43:33.501Z,100753.55
2022-09-01T07:46:36.668Z,100753.74
2022-09-01T07:49:29.619Z,100752.06
2022-09-01T07:51:45.581Z,100755.27
2022-09-01T07:54:14.093Z,100754.58
2022-09-01T07:56:42.745Z,100757.32
2022-09-01T07:59:15.303Z,100757.03
2022-09-01T08:01:44.329Z,100754.78
2022-09-01T08:04:13.583Z,100752.83
2022-09-01T08:06:42.112Z,100753.13
2022-09-01T08:09:11.982Z,100754.19
2022-09-01T08:12:02.051Z,100759.14
2022-09-01T08:14:34.773Z,100761.05
2022-09-01T08:17:34.088Z,100765.63
2022-09-01T08:19:53.680Z,100768.92
2022-09-01T08:22:24.414Z,100768.55
2022-09-01T08:24:53.117Z,100769.30
2022-09-01T08:27:21.575Z,100770.97
2022-09-01T08:29:50.013Z,100764.64
2022-09-01T08:32:18.440Z,100769.90
2022-09-01T08:34:46.808Z,100764.78
2022-09-01T08:37:15.095Z,100763.02
2022-09-01T08:39:43.587Z,100762.52
2022-09-01T08:42:20.943Z,100764.68
2022-09-01T08:45:20.505Z,100756.59
2022-09-01T08:48:28.721Z,100759.63
2022-09-01T08:50:45.180Z,100763.38
2022-09-01T08:53:43.988Z,100761.64
2022-09-01T08:56:14.379Z,100764.40
2022-09-01T08:58:42.948Z,100762.48
2022-09-01T09:01:47.661Z,100760.37
2022-09-01T09:04:49.370Z,100757.55
2022-09-01T09:08:15.922Z,100758.83
2022-09-01T09:11:21.520Z,100762.13
2022-09-01T09:14:15.731Z,100762.13
2022-09-01T09:16:53.915Z,100760.32
2022-09-01T09:19:36.255Z,100759.74
2022-09-01T09:22:12.766Z,100755.83
2022-09-01T09:25:17.530Z,100752.64
2022-09-01T09:28:00.529Z,100748.98
2022-09-01T09:30:32.282Z,100744.90
2022-09-01T09:33:48.610Z,100754.69
2022-09-01T09:36:35.820Z,100757.65
2022-09-01T09:39:13.796Z,100763.19
2022-09-01T09:41:44.345Z,100759.62
2022-09-01T09:44:32.915Z,100764.08
2022-09-01T09:47:01.457Z,100762.98
2022-09-01T09:49:41.426Z,100760.18
2022-09-01T09:52:19.081Z,100761.89
2022-09-01T09:55:01.748Z,100756.93
2022-09-01T09:57:32.286Z,100753.23
2022-09-01T10:00:25.945Z,100751.83
2022-09-01T10:03:04.664Z,100752.36
2022-09-01T10:05:53.358Z,100752.23
2022-09-01T10:08:28.674Z,100751.42
2022-09-01T10:10:58.828Z,100750.65
2022-09-01T10:13:31.404Z,100746.84
2022-09-01T10:16:13.133Z,100746.66
2022-09-01T10:18:45.179Z,100748.80
2022-09-01T10:21:30.587Z,100747.77
2022-09-01T10:24:20.406Z,100745.72
2022-09-01T10:26:57.327Z,100744.50
2022-09-01T10:29:50.833Z,100740.96
2022-09-01T10:32:38.255Z,100741.77
2022-09-01T10:35:20.074Z,100737.69
2022-09-01T10:37:50.083Z,100735.33
2022-09-01T10:40:29.854Z,100736.98
2022-09-01T10:43:40.361Z,100742.39
2022-09-01T10:46:15.608Z,100743.37
2022-09-01T10:48:48.813Z,100749.45
2022-09-01T10:51:21.118Z,100752.41
2022-09-01T10:54:03.700Z,100749.49
2022-09-01T10:56:52.011Z,100749.16
2022-09-01T10:59:32.844Z,100743.41
2022-09-01T11:02:26.378Z,100737.30
2022-09-01T11:04:58.716Z,100731.92
2022-09-01T11:08:00.569Z,100728.92
2022-09-01T11:10:34.766Z,100728.61
2022-09-01T11:13:49.080Z,100730.77
2022-09-01T11:16:49.443Z,100727.89
2022-09-01T11:19:31.026Z,100729.13
2022-09-01T11:22:18.178Z,100726.56
2022-09-01T11:25:12.964Z,100731.09
2022-09-01T11:27:50.503Z,100730.89
2022-09-01T11:30:31.226Z,100728.52
2022-09-01T11:33:27.027Z,100725.56
2022-09-01T11:36:07.061Z,100729.77
2022-09-01T11:38:53.265Z,100731.08
2022-09-01T11:41:45.590Z,100731.21
2022-09-01T11:44:38.532Z,100734.23
2022-09-01T11:47:14.572Z,100731.52
2022-09-01T11:49:55.248Z,100734.23
2022-09-01T11:52:30.717Z,100726.33
2022-09-01T11:55:00.264Z,100727.31
2022-09-01T11:57:38.178Z,100720.35
2022-09-01T12:00:14.103Z,100721.27
2022-09-01T12:02:55.056Z,100720.69
2022-09-01T12:05:31.277Z,100721.48
2022-09-01T12:08:05.432Z,100717.08
2022-09-01T12:10:40.181Z,100715.19
2022-09-01T12:13:15.747Z,100717.46
2022-09-01T12:16:06.876Z,100712.98
2022-09-01T12:18:47.489Z,100706.55
2022-09-01T12:21:38.416Z,100706.52
2022-09-01T12:24:18.977Z,100704.27
2022-09-01T12:26:50.433Z,100701.75
2022-09-01T12:29:19.527Z,100700.96
2022-09-01T12:31:52.625Z,100702.27
2022-09-01T12:34:59.431Z,100702.43
2022-09-01T12:37:28.097Z,100693.66
2022-09-01T12:39:59.336Z,100694.79
2022-09-01T12:42:41.528Z,100694.01
2022-09-01T12:45:13.299Z,100690.23
2022-09-01T12:47:48.043Z,100692.80
2022-09-01T12:50:16.964Z,100697.15
2022-09-01T12:52:52.487Z,100695.02
2022-09-01T12:58:29.482Z,100687.98
2022-09-01T13:01:16.084Z,100693.87
2022-09-01T13:04:23.056Z,100692.14
2022-09-01T13:06:52.764Z,100688.98
2022-09-01T13:09:21.150Z,100685.41
2022-09-01T13:12:06.590Z,100686.02
2022-09-01T13:14:35.562Z,100687.65
2022-09-01T13:17:04.422Z,100684.73
2022-09-01T13:19:32.730Z,100685.23
2022-09-01T13:22:01.074Z,100683.52
2022-09-01T13:24:31.620Z,100688.61
2022-09-01T13:29:50.393Z,100690.11
2022-09-01T13:32:22.057Z,100695.52
2022-09-01T13:34:53.477Z,100696.59
2022-09-01T13:37:22.957Z,100702.14
2022-09-01T13:39:51.461Z,100700.63
2022-09-01T13:42:19.875Z,100698.70
2022-09-01T13:44:52.551Z,100698.48
2022-09-01T13:47:29.194Z,100701.76
2022-09-01T13:50:10.005Z,100700.52
2022-09-01T13:52:43.482Z,100690.19
2022-09-01T13:55:17.347Z,100692.15
2022-09-01T13:57:45.707Z,100691.05
2022-09-01T14:00:18.764Z,100686.54
2022-09-01T14:02:50.414Z,100688.34
2022-09-01T14:05:23.147Z,100688.04
2022-09-01T14:07:52.980Z,100692.31
2022-09-01T14:10:24.153Z,100689.65
2022-09-01T14:12:52.742Z,100688.45
2022-09-01T14:15:26.589Z,100690.09
2022-09-01T14:17:58.124Z,100688.44
2022-09-01T14:20:36.918Z,100687.35
2022-09-01T14:23:08.707Z,100683.45
2022-09-01T14:25:43.042Z,100687.31
2022-09-01T14:28:11.984Z,100684.09
2022-09-01T14:30:45.486Z,100688.18
2022-09-01T14:33:14.520Z,100680.59
2022-09-01T14:35:47.784Z,100679.09
2022-09-01T14:38:17.195Z,100679.63
2022-09-01T14:40:49.435Z,100673.05
2022-09-01T14:43:18.460Z,100674.44
2022-09-01T14:45:48.059Z,100673.95
2022-09-01T14:48:18.995Z,100672.36
2022-09-01T14:50:49.959Z,100669.69
2022-09-01T14:53:19.492Z,100670.00
2022-09-01T14:55:50.516Z,100668.41
2022-09-01T14:58:21.168Z,100669.32
2022-09-01T15:00:50.166Z,100663.82
2022-09-01T15:03:22.772Z,100660.95
2022-09-01T15:05:53.082Z,100659.23
2022-09-01T15:08:23.510Z,100656.20
2022-09-01T15:10:51.896Z,100657.41
2022-09-01T15:13:20.497Z,100653.27
2022-09-01T15:15:48.938Z,100654.74
2022-09-01T15:18:17.302Z,100656.83
2022-09-01T15:20:50.964Z,100657.04
2022-09-01T15:23:23.688Z,100658.20
2022-09-01T15:25:54.151Z,100654.15
2022-09-01T15:28:22.872Z,100654.56
2022-09-01T15:31:04.470Z,100652.64
2022-09-01T15:33:33.441Z,100653.22
2022-09-01T15:36:01.952Z,100650.52
2022-09-01T15:38:31.173Z,100658.25
2022-09-01T15:41:01.187Z,100660.00
2022-09-01T15:43:30.375Z,100658.23
2022-09-01T15:46:00.588Z,100659.02
2022-09-01T15:48:35.099Z,100659.40
2022-09-01T15:51:45.726Z,100656.40
2022-09-01T15:54:22.190Z,100653.41
2022-09-01T15:56:51.312Z,100646.14
2022-09-01T15:59:20.499Z,100643.89
2022-09-01T16:01:48.953Z,100648.23
2022-09-01T16:04:19.851Z,100642.77
2022-09-01T16:06:52.722Z,100641.33
2022-09-01T16:09:21.262Z,100643.33
2022-09-01T16:11:50.022Z,100645.39
2022-09-01T16:14:21.422Z,100644.36
2022-09-01T16:17:09.401Z,100647.48
2022-09-01T16:20:13.678Z,100648.80
2022-09-01T16:23:48.746Z,100646.50
2022-09-01T16:26:20.444Z,100649.70
2022-09-01T16:28:57.756Z,100649.19
2022-09-01T16:31:33.028Z,100650.33
2022-09-01T16:34:13.257Z,100649.82
2022-09-01T16:36:57.389Z,100649.27
2022-09-01T16:39:34.031Z,100648.63
2022-09-01T16:42:49.252Z,100653.70
2022-09-01T16:45:56.079Z,100652.73
2022-09-01T16:48:42.328Z,100652.73
2022-09-01T16:51:22.179Z,100647.98
2022-09-01T16:54:42.579Z,100650.88
2022-09-01T16:57:45.171Z,100649.38
2022-09-01T17:00:35.215Z,100649.92
2022-09-01T17:03:34.196Z,100653.02
2022-09-01T17:06:29.152Z,100649.56
2022-09-01T17:09:10.409Z,100647.12
2022-09-01T17:11:49.187Z,100647.08
2022-09-01T17:14:32.522Z,100646.70
2022-09-01T17:17:17.896Z,100648.59
2022-09-01T17:19:52.714Z,100651.36
2022-09-01T17:22:21.754Z,100650.42
2022-09-01T17:25:07.806Z,100651.02
2022-09-01T17:27:54.326Z,100650.60
2022-09-01T17:30:22.638Z,100650.88
2022-09-01T17:33:28.514Z,100652.23
2022-09-01T17:36:24.256Z,100655.95
2022-09-01T17:39:14.240Z,100661.80
2022-09-01T17:42:11.162Z,100665.35
2022-09-01T17:44:56.363Z,100669.63
2022-09-01T17:47:56.196Z,100673.91
2022-09-01T17:50:39.848Z,100679.91
2022-09-01T17:53:34.136Z,100684.42
2022-09-01T17:56:21.402Z,100688.95
2022-09-01T17:59:10.546Z,100693.30
2022-09-01T18:02:10.077Z,100695.80
2022-09-01T18:05:12.895Z,100697.27
2022-09-01T18:08:00.623Z,100703.25
2022-09-01T18:11:04.524Z,100707.04
2022-09-01T18:13:53.963Z,100707.77
2022-09-01T18:16:35.123Z,100706.23
2022-09-01T18:19:12.282Z,100710.35
2022-09-01T18:21:52.155Z,100709.78
2022-09-01T18:24:43.610Z,100717.50
2022-09-01T18:27:12.874Z,100718.38
2022-09-01T18:29:42.475Z,100720.04
2022-09-01T18:32:35.182Z,100723.62
2022-09-01T18:35:31.945Z,100722.71
2022-09-01T18:38:13.024Z,100721.87
2022-09-01T18:41:29.569Z,100724.25
2022-09-01T18:44:38.746Z,100724.64
2022-09-01T18:47:14.511Z,100728.98
2022-09-01T18:50:18.150Z,100729.52
2022-09-01T18:53:17.509Z,100735.97
2022-09-01T18:56:22.196Z,100731.75
2022-09-01T18:59:14.550Z,100734.77
2022-09-01T19:01:59.843Z,100736.70
2022-09-01T19:04:35.790Z,100741.47
2022-09-01T19:07:16.741Z,100737.44
2022-09-01T19:10:18.438Z,100742.36
2022-09-01T19:12:55.675Z,100743.16
2022-09-01T19:15:56.993Z,100741.45
2022-09-01T19:18:47.038Z,100748.17
2022-09-01T19:21:24.640Z,100747.25
2022-09-01T19:24:05.962Z,100745.27
2022-09-01T19:26:44.849Z,100745.80
2022-09-01T19:29:23.613Z,100744.73
2022-09-01T19:32:02.420Z,100746.67
2022-09-01T19:34:43.088Z,100750.23
2022-09-01T19:37:12.538Z,100749.26
2022-09-01T19:39:45.338Z,100748.40
2022-09-01T19:42:47.224Z,100749.40
2022-09-01T19:45:31.003Z,100750.23
2022-09-01T19:48:26.615Z,100752.55
2022-09-01T19:51:01.025Z,100754.12
2022-09-01T19:54:01.467Z,100753.98
2022-09-01T19:56:51.545Z,100756.77
2022-09-01T19:59:58.130Z,100761.79
2022-09-01T20:02:35.167Z,100760.98
2022-09-01T20:05:38.851Z,100757.52
2022-09-01T20:08:46.731Z,100758.40
2022-09-01T20:11:36.815Z,100759.39
2022-09-01T20:14:32.978Z,100756.13
2022-09-01T20:17:07.979Z,100756.80
2022-09-01T20:20:17.652Z,100752.52
2022-09-01T20:23:10.605Z,100757.89
2022-09-01T20:26:14.712Z,100761.02
2022-09-01T20:29:12.484Z,100763.01
2022-09-01T20:31:50.227Z,100761.87
2022-09-01T20:34:35.204Z,100768.53
2022-09-01T20:37:18.785Z,100771.27
2022-09-01T20:40:04.342Z,100772.34
2022-09-01T20:43:08.520Z,100769.91
2022-09-01T20:45:38.608Z,100775.29
2022-09-01T20:48:24.693Z,100777.54
2022-09-01T20:51:18.480Z,100776.02
2022-09-01T20:54:29.379Z,100777.50
2022-09-01T20:57:36.227Z,100779.19
2022-09-01T21:00:17.122Z,100776.52
2022-09-01T21:03:20.726Z,100775.83
2022-09-01T21:06:08.646Z,100776.79
2022-09-01T21:08:50.976Z,100781.16
2022-09-01T21:11:48.252Z,100777.02
2022-09-01T21:14:31.349Z,100773.35
2022-09-01T21:17:43.023Z,100773.90
2022-09-01T21:20:52.873Z,100773.98
2022-09-01T21:23:21.477Z,100779.47
2022-09-01T21:25:50.053Z,100780.06
2022-09-01T21:28:21.573Z,100777.86
2022-09-01T21:30:54.167Z,100781.89
2022-09-01T21:33:28.730Z,100779.45
2022-09-01T21:35:59.831Z,100780.67
2022-09-01T21:38:29.583Z,100780.27
2022-09-01T21:41:01.741Z,100781.43
2022-09-01T21:43:35.820Z,100778.19
2022-09-01T21:46:06.221Z,100776.25
2022-09-01T21:48:35.212Z,100773.95
2022-09-01T21:51:06.629Z,100771.41
2022-09-01T21:53:35.022Z,100773.20
2022-09-01T21:56:04.102Z,100772.56
2022-09-01T21:58:32.891Z,100768.91
2022-09-01T22:01:01.896Z,100767.79
2022-09-01T22:03:30.263Z,100766.48
2022-09-01T22:05:58.672Z,100768.88
2022-09-01T22:08:27.217Z,100767.27
2022-09-01T22:10:55.927Z,100767.55
2022-09-01T22:13:25.367Z,100769.13
2022-09-01T22:15:55.291Z,100770.47
2022-09-01T22:18:23.631Z,100769.59
2022-09-01T22:21:01.272Z,100768.83
2022-09-01T22:23:29.657Z,100765.48
2022-09-01T22:25:58.129Z,100767.20
2022-09-01T22:28:26.615Z,100765.71
2022-09-01T22:30:54.974Z,100764.04
2022-09-01T22:33:24.373Z,100760.65
2022-09-01T22:35:56.086Z,100764.39
2022-09-01T22:38:24.448Z,100763.52
2022-09-01T22:40:57.292Z,100763.04
2022-09-01T22:43:28.177Z,100763.52
2022-09-01T22:45:58.473Z,100761.98
2022-09-01T22:48:28.835Z,100760.73
2022-09-01T22:50:57.471Z,100761.04
2022-09-01T22:53:25.772Z,100757.20
2022-09-01T22:55:54.760Z,100757.23
2022-09-01T22:58:23.156Z,100758.57
2022-09-01T23:00:56.087Z,100754.91
2022-09-01T23:03:24.512Z,100757.48
2022-09-01T23:06:08.082Z,100756.92
2022-09-01T23:08:37.216Z,100754.78
2022-09-01T23:11:07.521Z,100757.65
2022-09-01T23:13:37.931Z,100755.29
2022-09-01T23:16:10.022Z,100750.96
2022-09-01T23:18:42.284Z,100750.63
2022-09-01T23:21:13.235Z,100749.09
2022-09-01T23:23:42.336Z,100754.92
2022-09-01T23:26:13.867Z,100747.64
2022-09-01T23:28:44.072Z,100747.14
2022-09-01T23:31:20.385Z,100750.18
2022-09-01T23:33:48.989Z,100748.81
2022-09-01T23:36:20.589Z,100751.27
2022-09-01T23:38:49.991Z,100752.03
2022-09-01T23:41:23.822Z,100750.17
2022-09-01T23:43:53.240Z,100753.52
2022-09-01T23:46:28.592Z,100750.40
2022-09-01T23:48:57.734Z,100753.01
2022-09-01T23:51:26.464Z,100753.70
2022-09-01T23:53:54.845Z,100754.61
2022-09-01T23:56:27.080Z,100751.96
2022-09-01T23:58:56.168Z,100755.86
